sensor_id;sensor_type;location;lat;lon;timestamp;P1;durP1;ratioP1;P2;durP2;ratioP2
12493;SDS011;8260;51.422;6.786;2022-08-03T00:01:42;3.75;;;2.83;;
12493;SDS011;8260;51.422;6.786;2022-08-03T00:04:10;5.55;;;2.80;;
12493;SDS011;8260;51.422;6.786;2022-08-03T00:06:39;6.07;;;2.72;;
12493;SDS011;8260;51.422;6.786;2022-08-03T00:09:09;5.03;;;3.20;;
12493;SDS011;8260;51.422;6.786;2022-08-03T00:11:37;4.25;;;2.63;;
12493;SDS011;8260;51.422;6.786;2022-08-03T00:14:06;5.20;;;3.15;;
12493;SDS011;8260;51.422;6.786;2022-08-03T00:16:34;3.42;;;3.13;;
12493;SDS011;8260;51.422;6.786;2022-08-03T00:19:02;4.22;;;3.15;;
12493;SDS011;8260;51.422;6.786;2022-08-03T00:21:31;6.57;;;3.30;;
12493;SDS011;8260;51.422;6.786;2022-08-03T00:23:59;4.38;;;2.80;;
12493;SDS011;8260;51.422;6.786;2022-08-03T00:26:29;3.33;;;3.03;;
12493;SDS011;8260;51.422;6.786;2022-08-03T00:28:58;7.00;;;3.05;;
12493;SDS011;8260;51.422;6.786;2022-08-03T00:31:26;5.72;;;2.90;;
12493;SDS011;8260;51.422;6.786;2022-08-03T00:34:14;5.90;;;3.10;;
12493;SDS011;8260;51.422;6.786;2022-08-03T00:37:01;4.43;;;3.03;;
12493;SDS011;8260;51.422;6.786;2022-08-03T00:39:29;3.60;;;2.80;;
12493;SDS011;8260;51.422;6.786;2022-08-03T00:42:02;4.63;;;3.25;;
12493;SDS011;8260;51.422;6.786;2022-08-03T00:44:30;3.60;;;3.25;;
12493;SDS011;8260;51.422;6.786;2022-08-03T00:46:59;3.42;;;2.90;;
12493;SDS011;8260;51.422;6.786;2022-08-03T00:49:27;3.88;;;3.05;;
12493;SDS011;8260;51.422;6.786;2022-08-03T00:51:55;4.07;;;2.75;;
12493;SDS011;8260;51.422;6.786;2022-08-03T00:54:24;4.78;;;2.83;;
12493;SDS011;8260;51.422;6.786;2022-08-03T00:56:52;3.83;;;2.90;;
12493;SDS011;8260;51.422;6.786;2022-08-03T00:59:28;5.20;;;2.90;;
12493;SDS011;8260;51.422;6.786;2022-08-03T01:01:56;3.80;;;2.55;;
12493;SDS011;8260;51.422;6.786;2022-08-03T01:04:25;3.17;;;2.60;;
12493;SDS011;8260;51.422;6.786;2022-08-03T01:06:55;4.20;;;2.80;;
12493;SDS011;8260;51.422;6.786;2022-08-03T01:09:26;4.38;;;2.63;;
12493;SDS011;8260;51.422;6.786;2022-08-03T01:11:58;3.30;;;2.95;;
12493;SDS011;8260;51.422;6.786;2022-08-03T01:14:31;3.08;;;2.75;;
12493;SDS011;8260;51.422;6.786;2022-08-03T01:17:02;3.72;;;2.97;;
12493;SDS011;8260;51.422;6.786;2022-08-03T01:19:44;4.70;;;2.60;;
12493;SDS011;8260;51.422;6.786;2022-08-03T01:22:17;4.47;;;2.97;;
12493;SDS011;8260;51.422;6.786;2022-08-03T01:24:55;4.20;;;3.28;;
12493;SDS011;8260;51.422;6.786;2022-08-03T01:27:25;4.43;;;2.97;;
12493;SDS011;8260;51.422;6.786;2022-08-03T01:29:59;5.72;;;3.00;;
12493;SDS011;8260;51.422;6.786;2022-08-03T01:32:38;2.95;;;2.50;;
12493;SDS011;8260;51.422;6.786;2022-08-03T01:35:32;5.10;;;3.25;;
12493;SDS011;8260;51.422;6.786;2022-08-03T01:38:05;3.47;;;2.80;;
12493;SDS011;8260;51.422;6.786;2022-08-03T01:40:34;3.35;;;2.72;;
12493;SDS011;8260;51.422;6.786;2022-08-03T01:43:03;3.92;;;3.47;;
12493;SDS011;8260;51.422;6.786;2022-08-03T01:45:34;5.32;;;3.17;;
12493;SDS011;8260;51.422;6.786;2022-08-03T01:48:04;4.07;;;2.90;;
12493;SDS011;8260;51.422;6.786;2022-08-03T01:50:34;3.63;;;2.45;;
12493;SDS011;8260;51.422;6.786;2022-08-03T01:53:03;4.10;;;3.10;;
12493;SDS011;8260;51.422;6.786;2022-08-03T01:55:33;4.93;;;3.00;;
12493;SDS011;8260;51.422;6.786;2022-08-03T01:58:02;3.53;;;2.92;;
12493;SDS011;8260;51.422;6.786;2022-08-03T02:00:32;4.13;;;3.10;;
12493;SDS011;8260;51.422;6.786;2022-08-03T02:03:04;4.85;;;3.05;;
12493;SDS011;8260;51.422;6.786;2022-08-03T02:05:33;4.30;;;3.20;;
12493;SDS011;8260;51.422;6.786;2022-08-03T02:08:02;3.47;;;3.10;;
12493;SDS011;8260;51.422;6.786;2022-08-03T02:10:33;5.82;;;3.25;;
12493;SDS011;8260;51.422;6.786;2022-08-03T02:13:05;3.47;;;2.67;;
12493;SDS011;8260;51.422;6.786;2022-08-03T02:15:34;3.30;;;3.00;;
12493;SDS011;8260;51.422;6.786;2022-08-03T02:18:06;4.80;;;3.30;;
12493;SDS011;8260;51.422;6.786;2022-08-03T02:20:34;4.50;;;2.75;;
12493;SDS011;8260;51.422;6.786;2022-08-03T02:23:04;6.10;;;3.30;;
12493;SDS011;8260;51.422;6.786;2022-08-03T02:25:33;3.05;;;2.50;;
12493;SDS011;8260;51.422;6.786;2022-08-03T02:28:04;4.25;;;3.13;;
12493;SDS011;8260;51.422;6.786;2022-08-03T02:30:35;5.32;;;2.92;;
12493;SDS011;8260;51.422;6.786;2022-08-03T02:33:06;6.75;;;2.90;;
12493;SDS011;8260;51.422;6.786;2022-08-03T02:35:36;5.70;;;3.13;;
12493;SDS011;8260;51.422;6.786;2022-08-03T02:38:07;4.88;;;3.00;;
12493;SDS011;8260;51.422;6.786;2022-08-03T02:40:37;4.05;;;2.95;;
12493;SDS011;8260;51.422;6.786;2022-08-03T02:43:07;7.18;;;3.47;;
12493;SDS011;8260;51.422;6.786;2022-08-03T02:45:38;3.83;;;3.30;;
12493;SDS011;8260;51.422;6.786;2022-08-03T02:48:14;3.88;;;3.00;;
12493;SDS011;8260;51.422;6.786;2022-08-03T02:50:44;3.53;;;2.92;;
12493;SDS011;8260;51.422;6.786;2022-08-03T02:53:14;5.15;;;3.30;;
12493;SDS011;8260;51.422;6.786;2022-08-03T02:55:45;4.28;;;3.50;;
12493;SDS011;8260;51.422;6.786;2022-08-03T02:58:14;4.20;;;3.35;;
12493;SDS011;8260;51.422;6.786;2022-08-03T03:00:44;5.28;;;3.35;;
12493;SDS011;8260;51.422;6.786;2022-08-03T03:03:14;5.85;;;3.30;;
12493;SDS011;8260;51.422;6.786;2022-08-03T03:05:45;5.68;;;3.38;;
12493;SDS011;8260;51.422;6.786;2022-08-03T03:08:20;4.68;;;3.33;;
12493;SDS011;8260;51.422;6.786;2022-08-03T03:10:53;5.22;;;4.03;;
12493;SDS011;8260;51.422;6.786;2022-08-03T03:13:23;4.82;;;3.78;;
12493;SDS011;8260;51.422;6.786;2022-08-03T03:15:52;4.25;;;3.53;;
12493;SDS011;8260;51.422;6.786;2022-08-03T03:18:23;8.90;;;3.38;;
12493;SDS011;8260;51.422;6.786;2022-08-03T03:20:52;4.55;;;3.67;;
12493;SDS011;8260;51.422;6.786;2022-08-03T03:23:21;5.68;;;3.78;;
12493;SDS011;8260;51.422;6.786;2022-08-03T03:25:50;5.80;;;3.88;;
12493;SDS011;8260;51.422;6.786;2022-08-03T03:28:20;4.05;;;3.42;;
12493;SDS011;8260;51.422;6.786;2022-08-03T03:30:49;3.80;;;3.22;;
12493;SDS011;8260;51.422;6.786;2022-08-03T03:33:18;7.50;;;3.40;;
12493;SDS011;8260;51.422;6.786;2022-08-03T03:35:48;4.65;;;3.80;;
12493;SDS011;8260;51.422;6.786;2022-08-03T03:38:17;5.10;;;3.90;;
12493;SDS011;8260;51.422;6.786;2022-08-03T03:40:45;4.22;;;3.85;;
12493;SDS011;8260;51.422;6.786;2022-08-03T03:43:14;6.60;;;4.00;;
12493;SDS011;8260;51.422;6.786;2022-08-03T03:45:44;5.07;;;4.15;;
12493;SDS011;8260;51.422;6.786;2022-08-03T03:48:13;5.35;;;3.78;;
12493;SDS011;8260;51.422;6.786;2022-08-03T03:50:42;7.90;;;3.92;;
12493;SDS011;8260;51.422;6.786;2022-08-03T03:53:13;5.00;;;3.85;;
12493;SDS011;8260;51.422;6.786;2022-08-03T03:55:41;5.32;;;3.55;;
12493;SDS011;8260;51.422;6.786;2022-08-03T03:58:28;4.45;;;3.83;;
12493;SDS011;8260;51.422;6.786;2022-08-03T04:00:56;6.75;;;3.90;;
12493;SDS011;8260;51.422;6.786;2022-08-03T04:03:25;4.78;;;3.60;;
12493;SDS011;8260;51.422;6.786;2022-08-03T04:05:53;6.80;;;4.10;;
12493;SDS011;8260;51.422;6.786;2022-08-03T04:08:41;8.10;;;4.32;;
12493;SDS011;8260;51.422;6.786;2022-08-03T04:11:39;7.25;;;3.75;;
12493;SDS011;8260;51.422;6.786;2022-08-03T04:14:10;8.25;;;4.78;;
12493;SDS011;8260;51.422;6.786;2022-08-03T04:16:40;5.28;;;4.30;;
12493;SDS011;8260;51.422;6.786;2022-08-03T04:19:10;6.13;;;4.07;;
12493;SDS011;8260;51.422;6.786;2022-08-03T04:21:39;6.70;;;4.35;;
12493;SDS011;8260;51.422;6.786;2022-08-03T04:24:09;6.63;;;4.22;;
12493;SDS011;8260;51.422;6.786;2022-08-03T04:26:39;7.00;;;4.00;;
12493;SDS011;8260;51.422;6.786;2022-08-03T04:29:09;7.05;;;4.30;;
12493;SDS011;8260;51.422;6.786;2022-08-03T04:31:38;5.43;;;4.50;;
12493;SDS011;8260;51.422;6.786;2022-08-03T04:34:07;5.68;;;4.45;;
12493;SDS011;8260;51.422;6.786;2022-08-03T04:36:36;4.97;;;3.60;;
12493;SDS011;8260;51.422;6.786;2022-08-03T04:39:06;7.28;;;4.47;;
12493;SDS011;8260;51.422;6.786;2022-08-03T04:41:36;6.35;;;5.10;;
12493;SDS011;8260;51.422;6.786;2022-08-03T04:44:25;7.65;;;4.45;;
12493;SDS011;8260;51.422;6.786;2022-08-03T04:46:55;6.00;;;4.55;;
12493;SDS011;8260;51.422;6.786;2022-08-03T04:49:23;6.75;;;4.32;;
12493;SDS011;8260;51.422;6.786;2022-08-03T04:51:52;6.65;;;4.22;;
12493;SDS011;8260;51.422;6.786;2022-08-03T04:54:21;4.82;;;4.30;;
12493;SDS011;8260;51.422;6.786;2022-08-03T04:56:50;5.68;;;4.68;;
12493;SDS011;8260;51.422;6.786;2022-08-03T04:59:19;7.22;;;4.75;;
12493;SDS011;8260;51.422;6.786;2022-08-03T05:01:47;6.28;;;4.40;;
12493;SDS011;8260;51.422;6.786;2022-08-03T05:04:16;6.45;;;4.57;;
12493;SDS011;8260;51.422;6.786;2022-08-03T05:06:45;8.02;;;4.35;;
12493;SDS011;8260;51.422;6.786;2022-08-03T05:09:21;5.25;;;4.13;;
12493;SDS011;8260;51.422;6.786;2022-08-03T05:12:10;8.63;;;4.30;;
12493;SDS011;8260;51.422;6.786;2022-08-03T05:14:39;5.13;;;4.28;;
12493;SDS011;8260;51.422;6.786;2022-08-03T05:17:08;6.57;;;4.50;;
12493;SDS011;8260;51.422;6.786;2022-08-03T05:19:36;5.60;;;4.78;;
12493;SDS011;8260;51.422;6.786;2022-08-03T05:22:05;6.45;;;4.57;;
12493;SDS011;8260;51.422;6.786;2022-08-03T05:24:33;7.25;;;4.80;;
12493;SDS011;8260;51.422;6.786;2022-08-03T05:27:01;8.80;;;5.00;;
12493;SDS011;8260;51.422;6.786;2022-08-03T05:29:32;5.43;;;4.20;;
12493;SDS011;8260;51.422;6.786;2022-08-03T05:32:00;5.63;;;4.10;;
12493;SDS011;8260;51.422;6.786;2022-08-03T05:34:33;7.80;;;4.95;;
12493;SDS011;8260;51.422;6.786;2022-08-03T05:37:02;5.40;;;4.47;;
12493;SDS011;8260;51.422;6.786;2022-08-03T05:39:30;6.32;;;4.80;;
12493;SDS011;8260;51.422;6.786;2022-08-03T05:42:00;5.38;;;4.10;;
12493;SDS011;8260;51.422;6.786;2022-08-03T05:44:29;7.20;;;4.80;;
12493;SDS011;8260;51.422;6.786;2022-08-03T05:46:58;10.00;;;4.43;;
12493;SDS011;8260;51.422;6.786;2022-08-03T05:49:27;5.55;;;4.72;;
12493;SDS011;8260;51.422;6.786;2022-08-03T05:51:57;5.07;;;4.05;;
12493;SDS011;8260;51.422;6.786;2022-08-03T05:54:42;5.57;;;4.03;;
12493;SDS011;8260;51.422;6.786;2022-08-03T05:57:22;5.43;;;4.93;;
12493;SDS011;8260;51.422;6.786;2022-08-03T05:59:50;6.25;;;4.20;;
12493;SDS011;8260;51.422;6.786;2022-08-03T06:02:25;5.32;;;4.57;;
12493;SDS011;8260;51.422;6.786;2022-08-03T06:04:53;7.13;;;4.63;;
12493;SDS011;8260;51.422;6.786;2022-08-03T06:07:22;6.63;;;4.53;;
12493;SDS011;8260;51.422;6.786;2022-08-03T06:09:50;6.30;;;4.25;;
12493;SDS011;8260;51.422;6.786;2022-08-03T06:12:38;5.75;;;4.60;;
12493;SDS011;8260;51.422;6.786;2022-08-03T06:15:07;7.72;;;5.03;;
12493;SDS011;8260;51.422;6.786;2022-08-03T06:17:44;4.78;;;4.28;;
12493;SDS011;8260;51.422;6.786;2022-08-03T06:20:14;6.65;;;4.57;;
12493;SDS011;8260;51.422;6.786;2022-08-03T06:22:43;7.93;;;4.85;;
12493;SDS011;8260;51.422;6.786;2022-08-03T06:25:25;5.47;;;4.10;;
12493;SDS011;8260;51.422;6.786;2022-08-03T06:27:54;5.65;;;4.70;;
12493;SDS011;8260;51.422;6.786;2022-08-03T06:30:22;6.45;;;4.95;;
12493;SDS011;8260;51.422;6.786;2022-08-03T06:32:52;5.97;;;4.30;;
12493;SDS011;8260;51.422;6.786;2022-08-03T06:35:20;5.13;;;4.50;;
12493;SDS011;8260;51.422;6.786;2022-08-03T06:37:50;5.13;;;4.43;;
12493;SDS011;8260;51.422;6.786;2022-08-03T06:40:18;5.95;;;4.65;;
12493;SDS011;8260;51.422;6.786;2022-08-03T06:42:53;7.57;;;5.30;;
12493;SDS011;8260;51.422;6.786;2022-08-03T06:45:22;4.88;;;4.38;;
12493;SDS011;8260;51.422;6.786;2022-08-03T06:48:02;6.65;;;4.60;;
12493;SDS011;8260;51.422;6.786;2022-08-03T06:50:30;6.05;;;4.30;;
12493;SDS011;8260;51.422;6.786;2022-08-03T06:52:59;4.43;;;4.00;;
12493;SDS011;8260;51.422;6.786;2022-08-03T06:55:27;7.70;;;4.72;;
12493;SDS011;8260;51.422;6.786;2022-08-03T06:57:55;6.68;;;4.65;;
12493;SDS011;8260;51.422;6.786;2022-08-03T07:00:28;8.40;;;4.78;;
12493;SDS011;8260;51.422;6.786;2022-08-03T07:02:57;6.72;;;4.30;;
12493;SDS011;8260;51.422;6.786;2022-08-03T07:05:26;6.45;;;4.28;;
12493;SDS011;8260;51.422;6.786;2022-08-03T07:07:55;5.80;;;4.45;;
12493;SDS011;8260;51.422;6.786;2022-08-03T07:10:24;5.35;;;4.85;;
12493;SDS011;8260;51.422;6.786;2022-08-03T07:12:53;8.23;;;4.35;;
12493;SDS011;8260;51.422;6.786;2022-08-03T07:15:22;8.23;;;4.07;;
12493;SDS011;8260;51.422;6.786;2022-08-03T07:18:10;6.65;;;4.28;;
12493;SDS011;8260;51.422;6.786;2022-08-03T07:20:40;7.38;;;4.85;;
12493;SDS011;8260;51.422;6.786;2022-08-03T07:23:08;5.18;;;3.97;;
12493;SDS011;8260;51.422;6.786;2022-08-03T07:25:44;7.00;;;4.53;;
12493;SDS011;8260;51.422;6.786;2022-08-03T07:28:13;5.93;;;4.20;;
12493;SDS011;8260;51.422;6.786;2022-08-03T07:30:41;5.35;;;4.10;;
12493;SDS011;8260;51.422;6.786;2022-08-03T07:33:10;5.97;;;4.30;;
12493;SDS011;8260;51.422;6.786;2022-08-03T07:35:38;8.32;;;3.88;;
12493;SDS011;8260;51.422;6.786;2022-08-03T07:38:08;5.90;;;4.07;;
12493;SDS011;8260;51.422;6.786;2022-08-03T07:40:36;6.63;;;3.22;;
12493;SDS011;8260;51.422;6.786;2022-08-03T07:43:11;3.20;;;2.85;;
12493;SDS011;8260;51.422;6.786;2022-08-03T07:45:39;5.45;;;3.47;;
12493;SDS011;8260;51.422;6.786;2022-08-03T07:48:08;5.40;;;3.03;;
12493;SDS011;8260;51.422;6.786;2022-08-03T07:50:38;5.68;;;3.28;;
12493;SDS011;8260;51.422;6.786;2022-08-03T07:53:07;4.13;;;3.15;;
12493;SDS011;8260;51.422;6.786;2022-08-03T07:55:36;3.88;;;2.63;;
12493;SDS011;8260;51.422;6.786;2022-08-03T07:58:05;6.13;;;3.22;;
12493;SDS011;8260;51.422;6.786;2022-08-03T08:00:35;4.57;;;3.08;;
12493;SDS011;8260;51.422;6.786;2022-08-03T08:03:03;5.38;;;2.95;;
12493;SDS011;8260;51.422;6.786;2022-08-03T08:05:32;5.65;;;2.63;;
12493;SDS011;8260;51.422;6.786;2022-08-03T08:08:00;4.60;;;2.90;;
12493;SDS011;8260;51.422;6.786;2022-08-03T08:10:30;6.90;;;3.30;;
12493;SDS011;8260;51.422;6.786;2022-08-03T08:12:59;7.43;;;2.90;;
12493;SDS011;8260;51.422;6.786;2022-08-03T08:15:29;3.55;;;2.90;;
12493;SDS011;8260;51.422;6.786;2022-08-03T08:17:59;7.00;;;2.92;;
12493;SDS011;8260;51.422;6.786;2022-08-03T08:20:29;8.32;;;3.78;;
12493;SDS011;8260;51.422;6.786;2022-08-03T08:23:00;5.93;;;2.80;;
12493;SDS011;8260;51.422;6.786;2022-08-03T08:25:50;6.32;;;3.53;;
12493;SDS011;8260;51.422;6.786;2022-08-03T08:28:19;7.70;;;3.42;;
12493;SDS011;8260;51.422;6.786;2022-08-03T08:30:58;7.00;;;4.03;;
12493;SDS011;8260;51.422;6.786;2022-08-03T08:33:27;11.02;;;4.25;;
12493;SDS011;8260;51.422;6.786;2022-08-03T08:36:15;6.30;;;2.90;;
12493;SDS011;8260;51.422;6.786;2022-08-03T08:38:43;4.80;;;3.22;;
12493;SDS011;8260;51.422;6.786;2022-08-03T08:41:13;5.93;;;2.70;;
12493;SDS011;8260;51.422;6.786;2022-08-03T08:43:42;5.22;;;3.47;;
12493;SDS011;8260;51.422;6.786;2022-08-03T08:46:11;6.90;;;3.35;;
12493;SDS011;8260;51.422;6.786;2022-08-03T08:48:49;5.03;;;3.25;;
12493;SDS011;8260;51.422;6.786;2022-08-03T08:51:18;7.88;;;3.95;;
12493;SDS011;8260;51.422;6.786;2022-08-03T08:53:49;8.75;;;3.50;;
12493;SDS011;8260;51.422;6.786;2022-08-03T08:56:20;9.02;;;5.32;;
12493;SDS011;8260;51.422;6.786;2022-08-03T08:58:51;11.07;;;5.57;;
12493;SDS011;8260;51.422;6.786;2022-08-03T09:01:20;9.40;;;4.57;;
12493;SDS011;8260;51.422;6.786;2022-08-03T09:03:48;9.73;;;4.43;;
12493;SDS011;8260;51.422;6.786;2022-08-03T09:06:18;10.07;;;4.30;;
12493;SDS011;8260;51.422;6.786;2022-08-03T09:08:47;7.90;;;3.92;;
12493;SDS011;8260;51.422;6.786;2022-08-03T09:11:20;10.65;;;4.63;;
12493;SDS011;8260;51.422;6.786;2022-08-03T09:14:09;10.38;;;4.18;;
12493;SDS011;8260;51.422;6.786;2022-08-03T09:16:58;8.10;;;3.90;;
12493;SDS011;8260;51.422;6.786;2022-08-03T09:19:27;9.75;;;3.83;;
12493;SDS011;8260;51.422;6.786;2022-08-03T09:22:05;7.57;;;3.20;;
12493;SDS011;8260;51.422;6.786;2022-08-03T09:24:34;9.48;;;3.30;;
12493;SDS011;8260;51.422;6.786;2022-08-03T09:27:09;7.75;;;3.67;;
12493;SDS011;8260;51.422;6.786;2022-08-03T09:29:39;11.95;;;4.47;;
12493;SDS011;8260;51.422;6.786;2022-08-03T09:32:08;7.97;;;3.60;;
12493;SDS011;8260;51.422;6.786;2022-08-03T09:34:37;9.05;;;3.70;;
12493;SDS011;8260;51.422;6.786;2022-08-03T09:37:09;8.85;;;3.47;;
12493;SDS011;8260;51.422;6.786;2022-08-03T09:39:40;8.57;;;2.88;;
12493;SDS011;8260;51.422;6.786;2022-08-03T09:42:10;5.50;;;3.03;;
12493;SDS011;8260;51.422;6.786;2022-08-03T09:44:41;5.97;;;3.03;;
12493;SDS011;8260;51.422;6.786;2022-08-03T09:47:10;4.70;;;2.80;;
12493;SDS011;8260;51.422;6.786;2022-08-03T09:49:39;6.32;;;3.10;;
12493;SDS011;8260;51.422;6.786;2022-08-03T09:52:12;5.50;;;2.65;;
12493;SDS011;8260;51.422;6.786;2022-08-03T09:55:00;8.57;;;2.80;;
12493;SDS011;8260;51.422;6.786;2022-08-03T09:57:51;7.63;;;2.80;;
12493;SDS011;8260;51.422;6.786;2022-08-03T10:00:19;6.82;;;3.30;;
12493;SDS011;8260;51.422;6.786;2022-08-03T10:02:48;2.80;;;2.40;;
12493;SDS011;8260;51.422;6.786;2022-08-03T10:05:16;7.25;;;3.05;;
12493;SDS011;8260;51.422;6.786;2022-08-03T10:07:58;5.28;;;3.08;;
12493;SDS011;8260;51.422;6.786;2022-08-03T10:10:26;5.38;;;2.80;;
12493;SDS011;8260;51.422;6.786;2022-08-03T10:13:12;4.90;;;3.08;;
12493;SDS011;8260;51.422;6.786;2022-08-03T10:15:40;2.58;;;2.00;;
12493;SDS011;8260;51.422;6.786;2022-08-03T10:18:29;6.75;;;2.30;;
12493;SDS011;8260;51.422;6.786;2022-08-03T10:20:58;5.07;;;2.13;;
12493;SDS011;8260;51.422;6.786;2022-08-03T10:23:30;5.03;;;2.10;;
12493;SDS011;8260;51.422;6.786;2022-08-03T10:26:01;3.28;;;2.30;;
12493;SDS011;8260;51.422;6.786;2022-08-03T10:28:33;2.13;;;1.75;;
12493;SDS011;8260;51.422;6.786;2022-08-03T10:31:06;2.22;;;1.73;;
12493;SDS011;8260;51.422;6.786;2022-08-03T10:33:36;3.45;;;1.63;;
12493;SDS011;8260;51.422;6.786;2022-08-03T10:36:18;5.57;;;1.77;;
12493;SDS011;8260;51.422;6.786;2022-08-03T10:38:47;5.55;;;1.85;;
12493;SDS011;8260;51.422;6.786;2022-08-03T10:41:18;3.20;;;1.75;;
12493;SDS011;8260;51.422;6.786;2022-08-03T10:43:49;4.47;;;1.90;;
12493;SDS011;8260;51.422;6.786;2022-08-03T10:46:18;4.30;;;2.22;;
12493;SDS011;8260;51.422;6.786;2022-08-03T10:48:46;3.22;;;1.90;;
12493;SDS011;8260;51.422;6.786;2022-08-03T10:51:15;3.33;;;2.00;;
12493;SDS011;8260;51.422;6.786;2022-08-03T10:53:44;2.70;;;1.63;;
12493;SDS011;8260;51.422;6.786;2022-08-03T10:56:39;5.72;;;1.70;;
12493;SDS011;8260;51.422;6.786;2022-08-03T10:59:59;3.67;;;1.92;;
12493;SDS011;8260;51.422;6.786;2022-08-03T11:05:24;5.80;;;1.95;;
12493;SDS011;8260;51.422;6.786;2022-08-03T11:10:36;3.08;;;2.00;;
12493;SDS011;8260;51.422;6.786;2022-08-03T11:13:05;3.00;;;1.90;;
12493;SDS011;8260;51.422;6.786;2022-08-03T11:15:35;3.25;;;1.80;;
12493;SDS011;8260;51.422;6.786;2022-08-03T11:18:07;4.85;;;1.83;;
12493;SDS011;8260;51.422;6.786;2022-08-03T11:20:43;3.00;;;1.73;;
12493;SDS011;8260;51.422;6.786;2022-08-03T11:23:12;2.13;;;1.80;;
12493;SDS011;8260;51.422;6.786;2022-08-03T11:28:27;3.53;;;2.15;;
12493;SDS011;8260;51.422;6.786;2022-08-03T11:31:03;6.18;;;2.30;;
12493;SDS011;8260;51.422;6.786;2022-08-03T11:34:12;3.75;;;2.08;;
12493;SDS011;8260;51.422;6.786;2022-08-03T11:39:36;3.65;;;1.83;;
12493;SDS011;8260;51.422;6.786;2022-08-03T11:44:49;3.25;;;2.00;;
12493;SDS011;8260;51.422;6.786;2022-08-03T11:47:19;5.25;;;2.15;;
12493;SDS011;8260;51.422;6.786;2022-08-03T11:49:48;3.47;;;1.92;;
12493;SDS011;8260;51.422;6.786;2022-08-03T11:52:17;3.40;;;1.85;;
12493;SDS011;8260;51.422;6.786;2022-08-03T11:54:53;2.42;;;1.70;;
12493;SDS011;8260;51.422;6.786;2022-08-03T11:57:27;4.43;;;2.20;;
12493;SDS011;8260;51.422;6.786;2022-08-03T12:00:23;3.10;;;1.92;;
12493;SDS011;8260;51.422;6.786;2022-08-03T12:02:58;3.55;;;1.80;;
12493;SDS011;8260;51.422;6.786;2022-08-03T12:05:37;3.97;;;1.67;;
12493;SDS011;8260;51.422;6.786;2022-08-03T12:08:06;2.67;;;1.80;;
12493;SDS011;8260;51.422;6.786;2022-08-03T12:10:36;5.15;;;2.05;;
12493;SDS011;8260;51.422;6.786;2022-08-03T12:13:05;3.97;;;1.75;;
12493;SDS011;8260;51.422;6.786;2022-08-03T12:15:55;4.55;;;2.33;;
12493;SDS011;8260;51.422;6.786;2022-08-03T12:18:26;4.40;;;1.90;;
12493;SDS011;8260;51.422;6.786;2022-08-03T12:21:02;2.42;;;1.63;;
12493;SDS011;8260;51.422;6.786;2022-08-03T12:23:31;5.78;;;1.90;;
12493;SDS011;8260;51.422;6.786;2022-08-03T12:26:04;6.13;;;1.95;;
12493;SDS011;8260;51.422;6.786;2022-08-03T12:28:33;3.63;;;1.73;;
12493;SDS011;8260;51.422;6.786;2022-08-03T12:31:04;2.95;;;1.50;;
12493;SDS011;8260;51.422;6.786;2022-08-03T12:36:20;4.63;;;1.95;;
12493;SDS011;8260;51.422;6.786;2022-08-03T12:38:53;5.60;;;1.75;;
12493;SDS011;8260;51.422;6.786;2022-08-03T12:41:26;4.43;;;2.17;;
12493;SDS011;8260;51.422;6.786;2022-08-03T12:43:55;2.83;;;1.73;;
12493;SDS011;8260;51.422;6.786;2022-08-03T12:46:28;3.72;;;1.90;;
12493;SDS011;8260;51.422;6.786;2022-08-03T12:49:01;3.65;;;1.90;;
12493;SDS011;8260;51.422;6.786;2022-08-03T12:51:33;5.03;;;1.70;;
12493;SDS011;8260;51.422;6.786;2022-08-03T12:54:02;3.47;;;1.73;;
12493;SDS011;8260;51.422;6.786;2022-08-03T12:56:31;3.47;;;1.70;;
12493;SDS011;8260;51.422;6.786;2022-08-03T12:59:00;3.88;;;2.00;;
12493;SDS011;8260;51.422;6.786;2022-08-03T13:01:35;3.75;;;2.03;;
12493;SDS011;8260;51.422;6.786;2022-08-03T13:04:27;4.28;;;1.70;;
12493;SDS011;8260;51.422;6.786;2022-08-03T13:07:01;4.85;;;2.00;;
12493;SDS011;8260;51.422;6.786;2022-08-03T13:09:39;4.55;;;1.90;;
12493;SDS011;8260;51.422;6.786;2022-08-03T13:12:08;5.47;;;1.60;;
12493;SDS011;8260;51.422;6.786;2022-08-03T13:14:38;5.38;;;1.95;;
12493;SDS011;8260;51.422;6.786;2022-08-03T13:17:07;3.53;;;1.70;;
12493;SDS011;8260;51.422;6.786;2022-08-03T13:19:36;6.03;;;1.80;;
12493;SDS011;8260;51.422;6.786;2022-08-03T13:22:13;2.88;;;1.73;;
12493;SDS011;8260;51.422;6.786;2022-08-03T13:24:42;3.03;;;1.67;;
12493;SDS011;8260;51.422;6.786;2022-08-03T13:27:14;4.50;;;2.10;;
12493;SDS011;8260;51.422;6.786;2022-08-03T13:30:03;3.92;;;1.90;;
12493;SDS011;8260;51.422;6.786;2022-08-03T13:32:31;3.17;;;1.73;;
12493;SDS011;8260;51.422;6.786;2022-08-03T13:35:00;3.08;;;1.98;;
12493;SDS011;8260;51.422;6.786;2022-08-03T13:37:30;2.42;;;1.77;;
12493;SDS011;8260;51.422;6.786;2022-08-03T13:39:59;4.82;;;1.90;;
12493;SDS011;8260;51.422;6.786;2022-08-03T13:42:31;3.17;;;1.70;;
12493;SDS011;8260;51.422;6.786;2022-08-03T13:45:00;3.00;;;1.58;;
12493;SDS011;8260;51.422;6.786;2022-08-03T13:47:29;3.13;;;1.50;;
12493;SDS011;8260;51.422;6.786;2022-08-03T13:49:57;3.33;;;1.60;;
12493;SDS011;8260;51.422;6.786;2022-08-03T13:52:30;2.70;;;1.73;;
12493;SDS011;8260;51.422;6.786;2022-08-03T13:54:59;3.70;;;1.70;;
12493;SDS011;8260;51.422;6.786;2022-08-03T13:57:28;3.95;;;1.67;;
12493;SDS011;8260;51.422;6.786;2022-08-03T14:00:17;2.80;;;1.67;;
12493;SDS011;8260;51.422;6.786;2022-08-03T14:02:54;2.55;;;1.88;;
12493;SDS011;8260;51.422;6.786;2022-08-03T14:05:29;2.55;;;1.60;;
12493;SDS011;8260;51.422;6.786;2022-08-03T14:07:59;3.78;;;1.50;;
12493;SDS011;8260;51.422;6.786;2022-08-03T14:10:30;2.75;;;1.13;;
12493;SDS011;8260;51.422;6.786;2022-08-03T14:12:58;4.30;;;1.40;;
12493;SDS011;8260;51.422;6.786;2022-08-03T14:15:27;4.97;;;1.40;;
12493;SDS011;8260;51.422;6.786;2022-08-03T14:17:55;5.90;;;1.33;;
12493;SDS011;8260;51.422;6.786;2022-08-03T14:20:24;4.53;;;1.33;;
12493;SDS011;8260;51.422;6.786;2022-08-03T14:23:06;3.90;;;1.30;;
12493;SDS011;8260;51.422;6.786;2022-08-03T14:25:34;2.40;;;1.27;;
12493;SDS011;8260;51.422;6.786;2022-08-03T14:28:18;2.70;;;1.58;;
12493;SDS011;8260;51.422;6.786;2022-08-03T14:30:48;3.33;;;1.33;;
12493;SDS011;8260;51.422;6.786;2022-08-03T14:33:17;3.13;;;1.20;;
12493;SDS011;8260;51.422;6.786;2022-08-03T14:35:45;2.35;;;1.30;;
12493;SDS011;8260;51.422;6.786;2022-08-03T14:38:15;2.47;;;1.20;;
12493;SDS011;8260;51.422;6.786;2022-08-03T14:40:43;3.38;;;1.20;;
12493;SDS011;8260;51.422;6.786;2022-08-03T14:43:12;5.25;;;1.52;;
12493;SDS011;8260;51.422;6.786;2022-08-03T14:45:41;2.75;;;1.35;;
12493;SDS011;8260;51.422;6.786;2022-08-03T14:48:10;3.88;;;1.45;;
12493;SDS011;8260;51.422;6.786;2022-08-03T14:50:59;1.63;;;1.25;;
12493;SDS011;8260;51.422;6.786;2022-08-03T14:53:28;2.38;;;1.30;;
12493;SDS011;8260;51.422;6.786;2022-08-03T14:55:57;3.20;;;1.30;;
12493;SDS011;8260;51.422;6.786;2022-08-03T14:58:25;2.65;;;1.45;;
12493;SDS011;8260;51.422;6.786;2022-08-03T15:00:54;2.85;;;1.52;;
12493;SDS011;8260;51.422;6.786;2022-08-03T15:03:23;3.83;;;1.50;;
12493;SDS011;8260;51.422;6.786;2022-08-03T15:05:52;2.58;;;1.35;;
12493;SDS011;8260;51.422;6.786;2022-08-03T15:08:22;2.63;;;1.35;;
12493;SDS011;8260;51.422;6.786;2022-08-03T15:10:52;1.35;;;1.13;;
12493;SDS011;8260;51.422;6.786;2022-08-03T15:13:21;3.15;;;1.60;;
12493;SDS011;8260;51.422;6.786;2022-08-03T15:15:50;3.25;;;1.38;;
12493;SDS011;8260;51.422;6.786;2022-08-03T15:18:19;3.28;;;1.50;;
12493;SDS011;8260;51.422;6.786;2022-08-03T15:20:47;1.42;;;1.30;;
12493;SDS011;8260;51.422;6.786;2022-08-03T15:23:16;2.15;;;1.55;;
12493;SDS011;8260;51.422;6.786;2022-08-03T15:25:45;2.42;;;1.20;;
12493;SDS011;8260;51.422;6.786;2022-08-03T15:28:35;2.72;;;1.25;;
12493;SDS011;8260;51.422;6.786;2022-08-03T15:31:03;1.98;;;1.30;;
12493;SDS011;8260;51.422;6.786;2022-08-03T15:33:32;1.83;;;1.25;;
12493;SDS011;8260;51.422;6.786;2022-08-03T15:36:01;1.92;;;1.50;;
12493;SDS011;8260;51.422;6.786;2022-08-03T15:38:31;2.70;;;1.40;;
12493;SDS011;8260;51.422;6.786;2022-08-03T15:41:00;1.45;;;1.35;;
12493;SDS011;8260;51.422;6.786;2022-08-03T15:43:28;3.10;;;1.25;;
12493;SDS011;8260;51.422;6.786;2022-08-03T15:46:00;2.40;;;1.40;;